createdAt,value
2023-01-28T00:01:56.056Z,0.00
2023-01-28T00:04:23.075Z,0.00
2023-01-28T00:06:50.092Z,0.00
2023-01-28T00:09:17.466Z,0.00
2023-01-28T00:11:44.581Z,0.00
2023-01-28T00:14:12.729Z,0.00
2023-01-28T00:16:39.872Z,0.00
2023-01-28T00:19:07.538Z,0.00
2023-01-28T00:21:35.039Z,-0.10
2023-01-28T00:24:02.207Z,0.00
2023-01-28T00:26:29.251Z,0.00
2023-01-28T00:28:56.483Z,0.00
2023-01-28T00:31:27.439Z,-0.10
2023-01-28T00:33:56.273Z,-0.10
2023-01-28T00:36:25.852Z,0.00
2023-01-28T00:38:55.278Z,0.00
2023-01-28T00:41:24.844Z,0.00
2023-01-28T00:43:55.737Z,0.00
2023-01-28T00:46:23.747Z,0.00
2023-01-28T00:48:50.853Z,0.00
2023-01-28T00:51:20.302Z,0.00
2023-01-28T00:53:49.767Z,0.00
2023-01-28T00:56:19.539Z,0.00
2023-01-28T00:58:46.893Z,-0.10
2023-01-28T01:01:20.659Z,0.00
2023-01-28T01:03:54.459Z,0.00
2023-01-28T01:06:22.786Z,0.00
2023-01-28T01:08:50.299Z,-0.10
2023-01-28T01:11:19.064Z,-0.10
2023-01-28T01:13:55.038Z,-0.10
2023-01-28T01:16:24.447Z,-0.10
2023-01-28T01:18:53.519Z,-0.10
2023-01-28T01:21:23.401Z,-0.10
2023-01-28T01:23:51.817Z,-0.20
2023-01-28T01:26:19.143Z,-0.10
2023-01-28T01:28:46.712Z,-0.10
2023-01-28T01:31:17.367Z,-0.10
2023-01-28T01:33:46.759Z,-0.10
2023-01-28T01:36:16.858Z,-0.10
2023-01-28T01:38:45.044Z,-0.10
2023-01-28T01:41:32.190Z,-0.10
2023-01-28T01:44:02.078Z,-0.10
2023-01-28T01:46:41.681Z,-0.10
2023-01-28T01:49:18.068Z,-0.10
2023-01-28T01:51:49.153Z,-0.20
2023-01-28T01:54:18.248Z,-0.10
2023-01-28T01:56:48.923Z,-0.10
2023-01-28T01:59:20.379Z,-0.10
2023-01-28T02:01:48.561Z,-0.10
2023-01-28T02:04:22.503Z,-0.10
2023-01-28T02:06:49.688Z,-0.10
2023-01-28T02:09:27.417Z,-0.10
2023-01-28T02:11:59.053Z,-0.10
2023-01-28T02:14:32.015Z,-0.10
2023-01-28T02:17:02.046Z,-0.10
2023-01-28T02:19:40.432Z,-0.10
2023-01-28T02:22:28.678Z,-0.10
2023-01-28T02:25:12.825Z,-0.20
2023-01-28T02:28:17.688Z,-0.10
2023-01-28T02:31:06.121Z,-0.10
2023-01-28T02:33:41.210Z,-0.10
2023-01-28T02:36:17.107Z,-0.10
2023-01-28T02:38:51.096Z,0.00
2023-01-28T02:41:30.112Z,-0.10
2023-01-28T02:43:57.219Z,-0.10
2023-01-28T02:46:45.858Z,-0.10
2023-01-28T02:49:25.921Z,-0.10
2023-01-28T02:52:01.922Z,-0.10
2023-01-28T02:54:49.966Z,-0.10
2023-01-28T02:57:26.377Z,-0.10
2023-01-28T03:00:12.229Z,-0.10
2023-01-28T03:03:00.403Z,-0.10
2023-01-28T03:05:35.793Z,-0.20
2023-01-28T03:08:25.842Z,-0.20
2023-01-28T03:11:13.959Z,-0.20
2023-01-28T03:14:01.080Z,-0.20
2023-01-28T03:16:51.345Z,-0.20
2023-01-28T03:19:37.644Z,-0.20
2023-01-28T03:22:23.807Z,-0.10
2023-01-28T03:25:12.066Z,-0.10
2023-01-28T03:28:10.081Z,-0.20
2023-01-28T03:31:04.859Z,-0.20
2023-01-28T03:34:01.580Z,-0.20
2023-01-28T03:36:47.578Z,-0.20
2023-01-28T03:39:31.963Z,-0.10
2023-01-28T03:42:11.497Z,-0.20
2023-01-28T03:45:01.781Z,-0.20
2023-01-28T03:47:30.998Z,-0.20
2023-01-28T03:50:02.331Z,-0.20
2023-01-28T03:52:35.394Z,-0.20
2023-01-28T03:55:21.023Z,-0.20
2023-01-28T03:57:48.379Z,-0.20
2023-01-28T04:00:18.268Z,-0.20
2023-01-28T04:02:46.331Z,-0.20
2023-01-28T04:05:19.901Z,-0.20
2023-01-28T04:07:51.898Z,-0.20
2023-01-28T04:10:26.819Z,-0.20
2023-01-28T04:13:18.388Z,-0.20
2023-01-28T04:15:46.571Z,-0.30
2023-01-28T04:18:15.446Z,-0.20
2023-01-28T04:20:43.135Z,-0.20
2023-01-28T04:23:10.275Z,-0.20
2023-01-28T04:25:37.406Z,-0.20
2023-01-28T04:28:08.242Z,-0.20
2023-01-28T04:30:35.519Z,-0.20
2023-01-28T04:33:11.638Z,-0.30
2023-01-28T04:35:57.396Z,-0.30
2023-01-28T04:38:46.431Z,-0.20
2023-01-28T04:41:42.820Z,-0.20
2023-01-28T04:44:25.837Z,-0.20
2023-01-28T04:46:58.660Z,-0.20
2023-01-28T04:49:36.971Z,-0.20
2023-01-28T04:52:20.660Z,-0.10
2023-01-28T04:55:07.062Z,-0.20
2023-01-28T04:57:35.065Z,-0.20
2023-01-28T05:00:02.380Z,-0.30
2023-01-28T05:02:29.691Z,-0.30
2023-01-28T05:04:56.820Z,-0.30
2023-01-28T05:07:38.668Z,-0.20
2023-01-28T05:10:07.133Z,-0.20
2023-01-28T05:12:34.761Z,-0.20
2023-01-28T05:15:05.927Z,-0.20
2023-01-28T05:17:33.202Z,-0.20
2023-01-28T05:20:00.533Z,-0.20
2023-01-28T05:22:29.346Z,-0.30
2023-01-28T05:25:31.844Z,-0.20
2023-01-28T05:27:59.111Z,-0.20
2023-01-28T05:30:26.291Z,-0.20
2023-01-28T05:32:57.250Z,-0.20
2023-01-28T05:35:25.893Z,-0.20
2023-01-28T05:37:52.898Z,-0.10
2023-01-28T05:40:20.420Z,-0.10
2023-01-28T05:42:47.881Z,-0.10
2023-01-28T05:45:41.339Z,-0.10
2023-01-28T05:48:15.190Z,-0.20
2023-01-28T05:51:08.334Z,-0.20
2023-01-28T05:53:37.948Z,-0.20
2023-01-28T05:56:06.589Z,-0.20
2023-01-28T05:58:37.574Z,-0.20
2023-01-28T06:01:05.183Z,-0.20
2023-01-28T06:03:40.903Z,-0.20
2023-01-28T06:06:08.244Z,-0.10
2023-01-28T06:08:37.360Z,-0.10
2023-01-28T06:11:05.047Z,-0.20
2023-01-28T06:13:35.933Z,-0.20
2023-01-28T06:16:21.718Z,-0.10
2023-01-28T06:19:00.311Z,-0.20
2023-01-28T06:21:30.043Z,-0.20
2023-01-28T06:23:58.843Z,-0.20
2023-01-28T06:26:25.945Z,-0.20
2023-01-28T06:28:53.218Z,-0.20
2023-01-28T06:31:20.278Z,-0.10
2023-01-28T06:33:47.454Z,-0.20
2023-01-28T06:36:14.450Z,-0.20
2023-01-28T06:38:41.550Z,-0.20
2023-01-28T06:41:08.649Z,-0.20
2023-01-28T06:43:36.117Z,-0.20
2023-01-28T06:46:03.228Z,-0.20
2023-01-28T06:48:30.818Z,-0.20
2023-01-28T06:50:57.846Z,-0.20
2023-01-28T06:53:24.997Z,-0.20
2023-01-28T06:55:52.264Z,-0.20
2023-01-28T06:58:19.621Z,-0.20
2023-01-28T07:00:46.811Z,-0.20
2023-01-28T07:03:14.191Z,-0.20
2023-01-28T07:05:41.219Z,-0.20
2023-01-28T07:08:08.319Z,-0.20
2023-01-28T07:10:35.543Z,-0.30
2023-01-28T07:13:03.570Z,-0.20
2023-01-28T07:15:30.591Z,-0.20
2023-01-28T07:17:58.034Z,-0.20
2023-01-28T07:20:26.419Z,-0.20
2023-01-28T07:22:53.621Z,-0.20
2023-01-28T07:25:21.214Z,-0.20
2023-01-28T07:27:53.341Z,-0.20
2023-01-28T07:30:21.949Z,-0.20
2023-01-28T07:32:56.888Z,-0.20
2023-01-28T07:35:24.919Z,-0.10
2023-01-28T07:37:56.984Z,-0.10
2023-01-28T07:40:25.794Z,-0.10
2023-01-28T07:42:55.370Z,0.00
2023-01-28T07:45:24.452Z,0.10
2023-01-28T07:47:59.537Z,0.10
2023-01-28T07:50:29.164Z,0.10
2023-01-28T07:52:57.307Z,0.10
2023-01-28T07:55:25.612Z,0.10
2023-01-28T07:57:59.198Z,0.10
2023-01-28T08:00:28.338Z,0.20
2023-01-28T08:03:00.297Z,0.10
2023-01-28T08:05:41.600Z,0.20
2023-01-28T08:08:10.136Z,0.10
2023-01-28T08:10:38.181Z,0.10
2023-01-28T08:13:06.346Z,0.00
2023-01-28T08:15:35.369Z,0.00
2023-01-28T08:18:03.849Z,0.00
2023-01-28T08:20:31.037Z,0.00
2023-01-28T08:23:19.117Z,0.10
2023-01-28T08:25:47.400Z,0.10
2023-01-28T08:28:16.236Z,0.10
2023-01-28T08:30:43.640Z,0.00
2023-01-28T08:33:12.631Z,0.00
2023-01-28T08:35:40.351Z,0.10
2023-01-28T08:38:08.947Z,0.00
2023-01-28T08:40:39.138Z,0.00
2023-01-28T08:43:07.661Z,0.00
2023-01-28T08:45:34.704Z,-0.10
2023-01-28T08:48:06.926Z,0.00
2023-01-28T08:50:38.000Z,0.00
2023-01-28T08:53:08.257Z,0.00
2023-01-28T08:55:35.901Z,0.00
2023-01-28T08:58:05.071Z,0.00
2023-01-28T09:00:32.830Z,0.10
2023-01-28T09:03:00.308Z,0.10
2023-01-28T09:05:27.595Z,0.10
2023-01-28T09:07:54.709Z,0.00
2023-01-28T09:10:22.134Z,0.10
2023-01-28T09:12:49.547Z,0.10
2023-01-28T09:15:17.993Z,0.00
2023-01-28T09:17:46.046Z,0.00
2023-01-28T09:20:13.914Z,0.00
2023-01-28T09:22:41.477Z,0.00
2023-01-28T09:25:09.199Z,0.00
2023-01-28T09:27:36.235Z,0.10
2023-01-28T09:30:03.750Z,0.10
2023-01-28T09:32:31.411Z,0.10
2023-01-28T09:34:59.058Z,0.10
2023-01-28T09:37:26.058Z,0.10
2023-01-28T09:39:53.213Z,0.10
2023-01-28T09:42:41.162Z,0.10
2023-01-28T09:45:41.812Z,0.20
2023-01-28T09:48:21.946Z,0.20
2023-01-28T09:50:55.027Z,0.20
2023-01-28T09:53:24.351Z,0.20
2023-01-28T09:55:57.222Z,0.20
2023-01-28T09:58:24.330Z,0.20
2023-01-28T10:01:10.340Z,0.30
2023-01-28T10:03:46.265Z,0.40
2023-01-28T10:06:53.886Z,0.40
2023-01-28T10:09:34.748Z,0.50
2023-01-28T10:12:39.794Z,0.40
2023-01-28T10:15:07.199Z,0.30
2023-01-28T10:17:44.350Z,0.30
2023-01-28T10:20:21.161Z,0.30
2023-01-28T10:23:07.402Z,0.40
2023-01-28T10:25:35.925Z,0.50
2023-01-28T10:28:03.239Z,0.40
2023-01-28T10:30:38.740Z,0.40
2023-01-28T10:33:17.949Z,0.40
2023-01-28T10:35:45.403Z,0.40
2023-01-28T10:38:20.336Z,0.50
2023-01-28T10:40:50.631Z,0.50
2023-01-28T10:43:24.665Z,0.60
2023-01-28T10:46:15.877Z,0.50
2023-01-28T10:48:58.592Z,0.40
2023-01-28T10:51:37.208Z,0.40
2023-01-28T10:54:25.163Z,0.40
2023-01-28T10:56:59.249Z,0.40
2023-01-28T10:59:28.223Z,0.40
2023-01-28T11:02:04.581Z,0.40
2023-01-28T11:04:33.065Z,0.40
2023-01-28T11:07:04.708Z,0.40
2023-01-28T11:09:33.404Z,0.40
2023-01-28T11:12:20.416Z,0.40
2023-01-28T11:14:52.538Z,0.40
2023-01-28T11:17:24.731Z,0.40
2023-01-28T11:20:01.793Z,0.40
2023-01-28T11:22:38.906Z,0.40
2023-01-28T11:25:36.221Z,0.50
2023-01-28T11:28:17.495Z,0.50
2023-01-28T11:30:50.770Z,0.50
2023-01-28T11:33:39.546Z,0.50
2023-01-28T11:36:26.076Z,0.60
2023-01-28T11:38:55.376Z,0.60
2023-01-28T11:41:35.169Z,0.70
2023-01-28T11:44:20.789Z,0.60
2023-01-28T11:47:14.304Z,0.60
2023-01-28T11:50:05.462Z,0.60
2023-01-28T11:53:04.807Z,0.70
2023-01-28T11:55:51.792Z,0.70
2023-01-28T11:58:36.449Z,0.70
2023-01-28T12:01:56.950Z,0.70
2023-01-28T12:05:01.354Z,0.60
2023-01-28T12:07:40.418Z,0.70
2023-01-28T12:10:13.868Z,0.70
2023-01-28T12:12:44.302Z,0.70
2023-01-28T12:15:45.152Z,0.70
2023-01-28T12:18:33.163Z,0.70
2023-01-28T12:21:10.927Z,0.70
2023-01-28T12:23:47.038Z,0.60
2023-01-28T12:26:27.019Z,0.60
2023-01-28T12:29:28.914Z,0.60
2023-01-28T12:32:17.759Z,0.60
2023-01-28T12:34:53.738Z,0.70
2023-01-28T12:38:10.617Z,0.60
2023-01-28T12:40:56.890Z,0.70
2023-01-28T12:43:37.655Z,0.60
2023-01-28T12:46:18.889Z,0.70
2023-01-28T12:48:54.012Z,0.60
2023-01-28T12:51:41.288Z,0.60
2023-01-28T12:54:40.892Z,0.60
2023-01-28T12:57:13.882Z,0.60
2023-01-28T12:59:50.530Z,0.70
2023-01-28T13:02:26.618Z,0.70
2023-01-28T13:05:02.384Z,0.60
2023-01-28T13:07:37.404Z,0.60
2023-01-28T13:10:16.459Z,0.70
2023-01-28T13:12:44.716Z,0.70
2023-01-28T13:15:15.539Z,0.70
2023-01-28T13:17:58.413Z,0.70
2023-01-28T13:20:48.306Z,0.80
2023-01-28T13:23:41.890Z,0.80
2023-01-28T13:26:24.433Z,0.80
2023-01-28T13:28:53.528Z,0.80
2023-01-28T13:31:23.906Z,0.80
2023-01-28T13:33:54.150Z,0.80
2023-01-28T13:36:44.188Z,0.80
2023-01-28T13:39:14.416Z,0.80
2023-01-28T13:41:46.953Z,0.80
2023-01-28T13:44:29.850Z,0.80
2023-01-28T13:47:00.586Z,0.80
2023-01-28T13:49:54.384Z,0.80
2023-01-28T13:52:32.567Z,0.80
2023-01-28T13:55:06.869Z,0.80
2023-01-28T13:57:43.061Z,0.80
2023-01-28T14:00:37.800Z,0.80
2023-01-28T14:03:29.177Z,0.80
2023-01-28T14:06:30.590Z,0.80
2023-01-28T14:09:05.919Z,0.80
2023-01-28T14:11:54.391Z,0.80
2023-01-28T14:14:26.959Z,0.70
2023-01-28T14:17:14.244Z,0.70
2023-01-28T14:19:42.121Z,0.70
2023-01-28T14:22:10.747Z,0.70
2023-01-28T14:24:39.689Z,0.70
2023-01-28T14:27:11.623Z,0.70
2023-01-28T14:30:18.560Z,0.70
2023-01-28T14:32:51.587Z,0.70
2023-01-28T14:35:29.482Z,0.70
2023-01-28T14:37:58.120Z,0.70
2023-01-28T14:40:25.766Z,0.70
2023-01-28T14:42:55.400Z,0.70
2023-01-28T14:45:31.204Z,0.70
2023-01-28T14:48:09.819Z,0.70
2023-01-28T14:51:05.593Z,0.70
2023-01-28T14:54:06.054Z,0.70
2023-01-28T14:56:56.913Z,0.70
2023-01-28T14:59:29.774Z,0.70
2023-01-28T15:01:59.543Z,0.70
2023-01-28T15:04:30.564Z,0.70
2023-01-28T15:07:15.035Z,0.70
2023-01-28T15:09:42.213Z,0.70
2023-01-28T15:12:10.193Z,0.60
2023-01-28T15:14:37.373Z,0.70
2023-01-28T15:17:04.929Z,0.70
2023-01-28T15:19:35.453Z,0.70
2023-01-28T15:22:06.623Z,0.60
2023-01-28T15:24:37.411Z,0.60
2023-01-28T15:27:04.563Z,0.70
2023-01-28T15:29:35.343Z,0.70
2023-01-28T15:32:04.125Z,0.70
2023-01-28T15:34:32.191Z,0.60
2023-01-28T15:37:02.451Z,0.60
2023-01-28T15:39:30.251Z,0.70
2023-01-28T15:41:58.891Z,0.70
2023-01-28T15:44:29.383Z,0.60
2023-01-28T15:47:01.180Z,0.70
2023-01-28T15:49:34.008Z,0.70
2023-01-28T15:52:01.728Z,0.70
2023-01-28T15:54:30.531Z,0.70
2023-01-28T15:57:08.178Z,0.70
2023-01-28T15:59:35.235Z,0.60
2023-01-28T16:02:18.674Z,0.60
2023-01-28T16:04:57.808Z,0.60
2023-01-28T16:07:27.402Z,0.70
2023-01-28T16:09:56.850Z,0.70
2023-01-28T16:12:26.845Z,0.70
2023-01-28T16:15:02.726Z,0.70
2023-01-28T16:17:37.644Z,0.70
2023-01-28T16:20:08.095Z,0.70
2023-01-28T16:22:35.096Z,0.60
2023-01-28T16:25:03.831Z,0.60
2023-01-28T16:27:31.464Z,0.60
2023-01-28T16:29:58.670Z,0.60
2023-01-28T16:32:28.824Z,0.60
2023-01-28T16:34:56.164Z,0.70
2023-01-28T16:37:23.359Z,0.70
2023-01-28T16:39:50.468Z,0.60
2023-01-28T16:42:17.789Z,0.60
2023-01-28T16:44:45.284Z,0.60
2023-01-28T16:47:12.421Z,0.60
2023-01-28T16:49:40.056Z,0.60
2023-01-28T16:52:07.381Z,0.60
2023-01-28T16:54:35.082Z,0.60
2023-01-28T16:57:02.329Z,0.60
2023-01-28T16:59:29.429Z,0.60
2023-01-28T17:01:56.668Z,0.60
2023-01-28T17:04:23.774Z,0.60
2023-01-28T17:06:52.644Z,0.60
2023-01-28T17:09:20.433Z,0.60
2023-01-28T17:11:47.872Z,0.60
2023-01-28T17:14:14.808Z,0.60
2023-01-28T17:16:41.965Z,0.60
2023-01-28T17:19:08.987Z,0.60
2023-01-28T17:21:36.132Z,0.60
2023-01-28T17:24:03.629Z,0.60
2023-01-28T17:26:30.813Z,0.50
2023-01-28T17:28:57.859Z,0.50
2023-01-28T17:31:26.689Z,0.50
2023-01-28T17:33:55.625Z,0.50
2023-01-28T17:36:24.008Z,0.60
2023-01-28T17:38:51.639Z,0.50
2023-01-28T17:41:18.834Z,0.50
2023-01-28T17:43:53.384Z,0.50
2023-01-28T17:46:21.999Z,0.50
2023-01-28T17:48:49.027Z,0.50
2023-01-28T17:51:19.343Z,0.50
2023-01-28T17:53:47.938Z,0.50
2023-01-28T17:56:20.268Z,0.50
2023-01-28T17:58:55.185Z,0.50
2023-01-28T18:01:23.924Z,0.50
2023-01-28T18:03:51.169Z,0.50
2023-01-28T18:06:18.641Z,0.50
2023-01-28T18:08:46.056Z,0.50
2023-01-28T18:11:15.589Z,0.60
2023-01-28T18:13:43.152Z,0.50
2023-01-28T18:16:15.354Z,0.50
2023-01-28T18:18:43.153Z,0.50
2023-01-28T18:21:51.227Z,0.50
2023-01-28T18:24:20.371Z,0.50
2023-01-28T18:26:47.912Z,0.50
2023-01-28T18:29:19.075Z,0.50
2023-01-28T18:31:48.258Z,0.50
2023-01-28T18:34:16.199Z,0.50
2023-01-28T18:36:43.521Z,0.50
2023-01-28T18:39:12.887Z,0.50
2023-01-28T18:41:40.197Z,0.50
2023-01-28T18:44:09.248Z,0.50
2023-01-28T18:46:36.340Z,0.50
2023-01-28T18:49:03.807Z,0.50
2023-01-28T18:51:31.885Z,0.50
2023-01-28T18:54:00.702Z,0.50
2023-01-28T18:56:29.623Z,0.50
2023-01-28T18:59:02.002Z,0.50
2023-01-28T19:01:29.696Z,0.50
2023-01-28T19:03:58.154Z,0.50
2023-01-28T19:06:27.381Z,0.40
2023-01-28T19:08:56.293Z,0.40
2023-01-28T19:11:25.506Z,0.50
2023-01-28T19:13:53.103Z,0.40
2023-01-28T19:16:21.847Z,0.50
2023-01-28T19:18:57.594Z,0.50
2023-01-28T19:21:25.839Z,0.50
2023-01-28T19:24:00.701Z,0.50
2023-01-28T19:26:30.031Z,0.50
2023-01-28T19:28:57.535Z,0.50
2023-01-28T19:31:25.872Z,0.50
2023-01-28T19:33:58.333Z,0.50
2023-01-28T19:36:28.014Z,0.50
2023-01-28T19:39:00.116Z,0.40
2023-01-28T19:41:28.845Z,0.40
2023-01-28T19:43:56.814Z,0.40
2023-01-28T19:46:24.206Z,0.30
2023-01-28T19:48:51.393Z,0.20
2023-01-28T19:51:19.857Z,0.20
2023-01-28T19:53:50.596Z,0.30
2023-01-28T19:56:18.876Z,0.20
2023-01-28T19:58:46.952Z,0.20
2023-01-28T20:01:16.727Z,0.20
2023-01-28T20:03:45.739Z,0.20
2023-01-28T20:06:15.694Z,0.20
2023-01-28T20:08:43.802Z,0.20
2023-01-28T20:11:13.786Z,0.10
2023-01-28T20:13:43.034Z,0.20
2023-01-28T20:16:21.520Z,0.20
2023-01-28T20:18:53.626Z,0.20
2023-01-28T20:21:21.796Z,0.20
2023-01-28T20:23:50.442Z,0.20
2023-01-28T20:26:18.926Z,0.20
2023-01-28T20:28:46.059Z,0.20
2023-01-28T20:31:13.711Z,0.20
2023-01-28T20:33:40.881Z,0.20
2023-01-28T20:36:10.990Z,0.30
2023-01-28T20:38:48.501Z,0.30
2023-01-28T20:41:21.698Z,0.40
2023-01-28T20:43:50.610Z,0.30
2023-01-28T20:46:19.401Z,0.30
2023-01-28T20:48:47.517Z,0.20
2023-01-28T20:51:17.434Z,0.30
2023-01-28T20:53:45.381Z,0.30
2023-01-28T20:56:14.464Z,0.40
2023-01-28T20:58:42.155Z,0.40
2023-01-28T21:01:19.361Z,0.40
2023-01-28T21:03:47.604Z,0.40
2023-01-28T21:06:15.161Z,0.40
2023-01-28T21:08:43.557Z,0.40
2023-01-28T21:11:12.990Z,0.50
2023-01-28T21:13:40.555Z,0.50
2023-01-28T21:16:08.359Z,0.50
2023-01-28T21:18:35.684Z,0.50
2023-01-28T21:21:11.123Z,0.50
2023-01-28T21:23:38.159Z,0.50
2023-01-28T21:26:05.991Z,0.50
2023-01-28T21:28:33.311Z,0.50
2023-01-28T21:31:23.494Z,0.60
2023-01-28T21:33:52.259Z,0.60
2023-01-28T21:36:19.619Z,0.60
2023-01-28T21:38:52.017Z,0.60
2023-01-28T21:41:19.472Z,0.60
2023-01-28T21:43:53.809Z,0.50
2023-01-28T21:46:22.667Z,0.40
2023-01-28T21:48:49.786Z,0.40
2023-01-28T21:51:35.702Z,0.50
2023-01-28T21:54:04.603Z,0.50
2023-01-28T21:56:34.844Z,0.50
2023-01-28T21:59:20.504Z,0.60
2023-01-28T22:01:47.911Z,0.60
2023-01-28T22:04:15.364Z,0.60
2023-01-28T22:06:43.094Z,0.60
2023-01-28T22:09:14.196Z,0.60
2023-01-28T22:11:43.326Z,0.60
2023-01-28T22:14:10.931Z,0.60
2023-01-28T22:16:38.603Z,0.60
2023-01-28T22:19:05.642Z,0.60
2023-01-28T22:21:33.019Z,0.60
2023-01-28T22:24:00.518Z,0.60
2023-01-28T22:26:27.662Z,0.60
2023-01-28T22:28:54.720Z,0.60
2023-01-28T22:31:21.991Z,0.60
2023-01-28T22:33:49.154Z,0.60
2023-01-28T22:36:16.626Z,0.60
2023-01-28T22:38:45.603Z,0.60
2023-01-28T22:41:19.303Z,0.50
2023-01-28T22:43:47.274Z,0.50
2023-01-28T22:46:15.632Z,0.50
2023-01-28T22:48:42.842Z,0.50
2023-01-28T22:51:27.340Z,0.50
2023-01-28T22:53:54.516Z,0.50
2023-01-28T22:56:24.232Z,0.50
2023-01-28T22:58:59.125Z,0.40
2023-01-28T23:01:27.187Z,0.30
2023-01-28T23:03:56.291Z,0.30
2023-01-28T23:06:25.236Z,0.30
2023-01-28T23:08:52.820Z,0.30
2023-01-28T23:11:27.313Z,0.20
2023-01-28T23:14:19.488Z,0.20
2023-01-28T23:17:05.702Z,0.20
2023-01-28T23:19:52.391Z,0.30
2023-01-28T23:22:48.217Z,0.30
2023-01-28T23:25:15.964Z,0.30
2023-01-28T23:27:43.816Z,0.30
2023-01-28T23:30:12.384Z,0.30
2023-01-28T23:32:42.410Z,0.30
2023-01-28T23:35:10.699Z,0.30
2023-01-28T23:37:37.991Z,0.30
2023-01-28T23:40:06.830Z,0.30
2023-01-28T23:42:33.972Z,0.30
2023-01-28T23:45:01.142Z,0.30
2023-01-28T23:47:28.278Z,0.30
2023-01-28T23:49:55.438Z,0.30
2023-01-28T23:52:23.523Z,0.30
2023-01-28T23:54:50.873Z,0.30
2023-01-28T23:57:17.849Z,0.30
2023-01-28T23:59:44.956Z,0.30
